sensor_id;sensor_type;location;lat;lon;timestamp;pressure;altitude;pressure_sealevel;temperature;humidity
54600;BME280;40500;51.084;16.958;2022-10-30T00:00:49;100769.52;;;12.52;79.28
54600;BME280;40500;51.084;16.958;2022-10-30T00:03:17;100769.70;;;12.51;79.42
54600;BME280;40500;51.084;16.958;2022-10-30T00:05:46;100770.66;;;12.46;79.48
54600;BME280;40500;51.084;16.958;2022-10-30T00:08:15;100768.27;;;12.42;79.44
54600;BME280;40500;51.084;16.958;2022-10-30T00:10:43;100768.52;;;12.39;79.50
54600;BME280;40500;51.084;16.958;2022-10-30T00:13:11;100767.67;;;12.37;79.59
54600;BME280;40500;51.084;16.958;2022-10-30T00:15:39;100772.25;;;12.36;79.67
54600;BME280;40500;51.084;16.958;2022-10-30T00:18:13;100765.43;;;12.34;79.58
54600;BME280;40500;51.084;16.958;2022-10-30T00:20:40;100773.35;;;12.33;79.63
54600;BME280;40500;51.084;16.958;2022-10-30T00:23:08;100768.23;;;12.35;79.82
54600;BME280;40500;51.084;16.958;2022-10-30T00:25:36;100767.86;;;12.36;79.88
54600;BME280;40500;51.084;16.958;2022-10-30T00:28:03;100763.29;;;12.37;79.92
54600;BME280;40500;51.084;16.958;2022-10-30T00:30:31;100762.05;;;12.37;79.98
54600;BME280;40500;51.084;16.958;2022-10-30T00:32:59;100765.90;;;12.38;80.09
54600;BME280;40500;51.084;16.958;2022-10-30T00:35:28;100761.88;;;12.37;80.29
54600;BME280;40500;51.084;16.958;2022-10-30T00:37:55;100758.53;;;12.37;80.44
54600;BME280;40500;51.084;16.958;2022-10-30T00:40:24;100756.79;;;12.37;80.51
54600;BME280;40500;51.084;16.958;2022-10-30T00:42:51;100753.27;;;12.37;80.74
54600;BME280;40500;51.084;16.958;2022-10-30T00:45:19;100750.64;;;12.37;80.81
54600;BME280;40500;51.084;16.958;2022-10-30T00:47:51;100752.02;;;12.38;81.00
54600;BME280;40500;51.084;16.958;2022-10-30T00:50:23;100755.02;;;12.37;81.05
54600;BME280;40500;51.084;16.958;2022-10-30T00:52:56;100747.56;;;12.31;81.01
54600;BME280;40500;51.084;16.958;2022-10-30T00:55:30;100748.29;;;12.20;80.89
54600;BME280;40500;51.084;16.958;2022-10-30T00:58:01;100744.86;;;12.16;80.83
54600;BME280;40500;51.084;16.958;2022-10-30T01:00:30;100748.21;;;12.14;80.83
54600;BME280;40500;51.084;16.958;2022-10-30T01:02:57;100748.04;;;12.15;80.92
54600;BME280;40500;51.084;16.958;2022-10-30T01:05:28;100743.48;;;12.14;81.07
54600;BME280;40500;51.084;16.958;2022-10-30T01:07:57;100742.77;;;12.14;80.93
54600;BME280;40500;51.084;16.958;2022-10-30T01:10:25;100737.67;;;12.14;81.07
54600;BME280;40500;51.084;16.958;2022-10-30T01:12:53;100732.59;;;12.13;81.19
54600;BME280;40500;51.084;16.958;2022-10-30T01:15:25;100726.43;;;12.14;81.29
54600;BME280;40500;51.084;16.958;2022-10-30T01:21:03;100717.14;;;12.14;81.46
54600;BME280;40500;51.084;16.958;2022-10-30T01:23:41;100722.27;;;12.11;81.55
54600;BME280;40500;51.084;16.958;2022-10-30T01:26:18;100730.19;;;12.11;81.68
54600;BME280;40500;51.084;16.958;2022-10-30T01:29:02;100738.44;;;12.10;81.77
54600;BME280;40500;51.084;16.958;2022-10-30T01:31:43;100736.76;;;12.06;81.69
54600;BME280;40500;51.084;16.958;2022-10-30T01:34:35;100740.73;;;12.00;81.49
54600;BME280;40500;51.084;16.958;2022-10-30T01:37:09;100740.34;;;11.91;81.22
54600;BME280;40500;51.084;16.958;2022-10-30T01:39:40;100735.27;;;11.87;81.34
54600;BME280;40500;51.084;16.958;2022-10-30T01:42:44;100731.95;;;11.86;81.21
54600;BME280;40500;51.084;16.958;2022-10-30T01:45:16;100732.30;;;11.87;81.45
54600;BME280;40500;51.084;16.958;2022-10-30T01:47:54;100731.23;;;11.87;81.47
54600;BME280;40500;51.084;16.958;2022-10-30T01:50:34;100735.09;;;11.88;81.61
54600;BME280;40500;51.084;16.958;2022-10-30T01:53:09;100734.57;;;11.88;81.70
54600;BME280;40500;51.084;16.958;2022-10-30T01:55:45;100735.45;;;11.86;81.82
54600;BME280;40500;51.084;16.958;2022-10-30T01:58:18;100732.85;;;11.85;81.90
54600;BME280;40500;51.084;16.958;2022-10-30T02:00:52;100737.43;;;11.83;81.86
54600;BME280;40500;51.084;16.958;2022-10-30T02:03:21;100737.64;;;11.70;81.60
54600;BME280;40500;51.084;16.958;2022-10-30T02:05:50;100736.56;;;11.61;81.43
54600;BME280;40500;51.084;16.958;2022-10-30T02:08:18;100735.17;;;11.60;81.53
54600;BME280;40500;51.084;16.958;2022-10-30T02:10:47;100734.97;;;11.62;81.60
54600;BME280;40500;51.084;16.958;2022-10-30T02:13:16;100735.98;;;11.64;81.77
54600;BME280;40500;51.084;16.958;2022-10-30T02:15:43;100733.67;;;11.66;81.87
54600;BME280;40500;51.084;16.958;2022-10-30T02:18:12;100734.17;;;11.67;82.08
54600;BME280;40500;51.084;16.958;2022-10-30T02:20:39;100733.98;;;11.68;82.12
54600;BME280;40500;51.084;16.958;2022-10-30T02:23:07;100739.95;;;11.69;82.27
54600;BME280;40500;51.084;16.958;2022-10-30T02:25:38;100743.45;;;11.70;82.39
54600;BME280;40500;51.084;16.958;2022-10-30T02:28:06;100747.30;;;11.71;82.47
54600;BME280;40500;51.084;16.958;2022-10-30T02:30:33;100746.06;;;11.72;82.55
54600;BME280;40500;51.084;16.958;2022-10-30T02:33:01;100743.93;;;11.73;82.67
54600;BME280;40500;51.084;16.958;2022-10-30T02:35:29;100746.39;;;11.73;82.81
54600;BME280;40500;51.084;16.958;2022-10-30T02:37:57;100744.84;;;11.70;82.86
54600;BME280;40500;51.084;16.958;2022-10-30T02:40:25;100740.36;;;11.65;82.68
54600;BME280;40500;51.084;16.958;2022-10-30T02:42:54;100731.98;;;11.62;82.62
54600;BME280;40500;51.084;16.958;2022-10-30T02:45:22;100727.57;;;11.63;82.60
54600;BME280;40500;51.084;16.958;2022-10-30T02:47:49;100723.04;;;11.62;82.79
54600;BME280;40500;51.084;16.958;2022-10-30T02:50:17;100727.42;;;11.62;82.84
54600;BME280;40500;51.084;16.958;2022-10-30T02:52:44;100727.27;;;11.60;82.85
54600;BME280;40500;51.084;16.958;2022-10-30T02:55:12;100719.10;;;11.56;82.74
54600;BME280;40500;51.084;16.958;2022-10-30T02:57:39;100719.52;;;11.53;82.71
54600;BME280;40500;51.084;16.958;2022-10-30T03:00:09;100718.80;;;11.53;82.78
54600;BME280;40500;51.084;16.958;2022-10-30T03:02:37;100722.48;;;11.53;82.75
54600;BME280;40500;51.084;16.958;2022-10-30T03:05:05;100721.77;;;11.52;82.80
54600;BME280;40500;51.084;16.958;2022-10-30T03:07:33;100722.48;;;11.52;82.85
54600;BME280;40500;51.084;16.958;2022-10-30T03:10:00;100724.42;;;11.51;82.78
54600;BME280;40500;51.084;16.958;2022-10-30T03:12:28;100723.05;;;11.48;82.59
54600;BME280;40500;51.084;16.958;2022-10-30T03:14:55;100724.14;;;11.47;82.57
54600;BME280;40500;51.084;16.958;2022-10-30T03:17:22;100724.83;;;11.47;82.63
54600;BME280;40500;51.084;16.958;2022-10-30T03:19:50;100724.31;;;11.46;82.61
54600;BME280;40500;51.084;16.958;2022-10-30T03:22:17;100724.66;;;11.46;82.77
54600;BME280;40500;51.084;16.958;2022-10-30T03:24:45;100720.11;;;11.45;82.67
54600;BME280;40500;51.084;16.958;2022-10-30T03:27:12;100715.23;;;11.44;82.87
54600;BME280;40500;51.084;16.958;2022-10-30T03:29:40;100723.31;;;11.43;82.82
54600;BME280;40500;51.084;16.958;2022-10-30T03:32:09;100724.89;;;11.42;83.02
54600;BME280;40500;51.084;16.958;2022-10-30T03:34:37;100727.41;;;11.39;83.01
54600;BME280;40500;51.084;16.958;2022-10-30T03:37:04;100730.92;;;11.38;83.12
54600;BME280;40500;51.084;16.958;2022-10-30T03:39:32;100730.38;;;11.39;83.18
54600;BME280;40500;51.084;16.958;2022-10-30T03:41:59;100727.59;;;11.39;83.01
54600;BME280;40500;51.084;16.958;2022-10-30T03:44:27;100725.84;;;11.38;83.22
54600;BME280;40500;51.084;16.958;2022-10-30T03:46:54;100719.19;;;11.37;83.12
54600;BME280;40500;51.084;16.958;2022-10-30T03:49:22;100723.21;;;11.37;83.28
54600;BME280;40500;51.084;16.958;2022-10-30T03:51:49;100722.51;;;11.38;83.42
54600;BME280;40500;51.084;16.958;2022-10-30T03:54:16;100722.50;;;11.38;83.37
54600;BME280;40500;51.084;16.958;2022-10-30T03:56:45;100716.91;;;11.37;83.35
54600;BME280;40500;51.084;16.958;2022-10-30T03:59:12;100713.94;;;11.36;83.31
54600;BME280;40500;51.084;16.958;2022-10-30T04:01:39;100710.11;;;11.35;83.26
54600;BME280;40500;51.084;16.958;2022-10-30T04:04:07;100716.27;;;11.34;83.20
54600;BME280;40500;51.084;16.958;2022-10-30T04:06:35;100718.23;;;11.31;83.31
54600;BME280;40500;51.084;16.958;2022-10-30T04:09:02;100724.73;;;11.30;83.41
54600;BME280;40500;51.084;16.958;2022-10-30T04:11:30;100729.30;;;11.27;83.17
54600;BME280;40500;51.084;16.958;2022-10-30T04:13:57;100720.95;;;11.23;83.18
54600;BME280;40500;51.084;16.958;2022-10-30T04:16:25;100718.90;;;11.20;83.11
54600;BME280;40500;51.084;16.958;2022-10-30T04:18:52;100708.92;;;11.19;83.27
54600;BME280;40500;51.084;16.958;2022-10-30T04:21:19;100703.51;;;11.18;83.16
54600;BME280;40500;51.084;16.958;2022-10-30T04:23:48;100697.20;;;11.17;83.28
54600;BME280;40500;51.084;16.958;2022-10-30T04:26:15;100693.71;;;11.16;83.31
54600;BME280;40500;51.084;16.958;2022-10-30T04:28:43;100692.14;;;11.16;83.50
54600;BME280;40500;51.084;16.958;2022-10-30T04:31:10;100697.77;;;11.14;83.59
54600;BME280;40500;51.084;16.958;2022-10-30T04:33:40;100694.29;;;11.12;83.42
54600;BME280;40500;51.084;16.958;2022-10-30T04:36:08;100695.89;;;11.10;83.57
54600;BME280;40500;51.084;16.958;2022-10-30T04:38:36;100694.58;;;11.03;83.53
54600;BME280;40500;51.084;16.958;2022-10-30T04:41:04;100693.10;;;10.96;83.07
54600;BME280;40500;51.084;16.958;2022-10-30T04:43:31;100694.04;;;10.91;82.94
54600;BME280;40500;51.084;16.958;2022-10-30T04:46:02;100694.06;;;10.89;82.97
54600;BME280;40500;51.084;16.958;2022-10-30T04:48:30;100692.16;;;10.88;83.06
54600;BME280;40500;51.084;16.958;2022-10-30T04:51:00;100690.23;;;10.87;83.11
54600;BME280;40500;51.084;16.958;2022-10-30T04:53:28;100691.31;;;10.84;83.06
54600;BME280;40500;51.084;16.958;2022-10-30T04:55:55;100693.66;;;10.78;82.84
54600;BME280;40500;51.084;16.958;2022-10-30T04:58:23;100699.92;;;10.69;82.57
54600;BME280;40500;51.084;16.958;2022-10-30T05:00:50;100699.85;;;10.57;82.48
54600;BME280;40500;51.084;16.958;2022-10-30T05:03:19;100700.42;;;10.54;82.52
54600;BME280;40500;51.084;16.958;2022-10-30T05:05:54;100698.31;;;10.54;82.57
54600;BME280;40500;51.084;16.958;2022-10-30T05:08:22;100690.43;;;10.55;82.52
54600;BME280;40500;51.084;16.958;2022-10-30T05:10:49;100690.41;;;10.56;82.73
54600;BME280;40500;51.084;16.958;2022-10-30T05:13:17;100690.59;;;10.57;82.86
54600;BME280;40500;51.084;16.958;2022-10-30T05:15:44;100693.05;;;10.57;82.91
54600;BME280;40500;51.084;16.958;2022-10-30T05:18:11;100689.17;;;10.58;82.99
54600;BME280;40500;51.084;16.958;2022-10-30T05:20:39;100686.89;;;10.58;83.08
54600;BME280;40500;51.084;16.958;2022-10-30T05:23:07;100688.47;;;10.59;83.10
54600;BME280;40500;51.084;16.958;2022-10-30T05:25:35;100689.36;;;10.57;83.17
54600;BME280;40500;51.084;16.958;2022-10-30T05:28:03;100691.32;;;10.55;83.45
54600;BME280;40500;51.084;16.958;2022-10-30T05:30:33;100689.40;;;10.54;83.33
54600;BME280;40500;51.084;16.958;2022-10-30T05:33:02;100686.77;;;10.55;83.56
54600;BME280;40500;51.084;16.958;2022-10-30T05:35:30;100688.34;;;10.54;83.66
54600;BME280;40500;51.084;16.958;2022-10-30T05:37:59;100694.80;;;10.56;83.57
54600;BME280;40500;51.084;16.958;2022-10-30T05:40:26;100696.90;;;10.57;83.86
54600;BME280;40500;51.084;16.958;2022-10-30T05:42:54;100697.23;;;10.56;83.76
54600;BME280;40500;51.084;16.958;2022-10-30T05:45:22;100698.48;;;10.56;83.93
54600;BME280;40500;51.084;16.958;2022-10-30T05:47:54;100693.77;;;10.55;83.90
54600;BME280;40500;51.084;16.958;2022-10-30T05:50:23;100700.95;;;10.54;84.06
54600;BME280;40500;51.084;16.958;2022-10-30T05:52:54;100703.92;;;10.54;84.01
54600;BME280;40500;51.084;16.958;2022-10-30T05:55:22;100701.12;;;10.55;83.88
54600;BME280;40500;51.084;16.958;2022-10-30T05:57:53;100703.39;;;10.55;84.00
54600;BME280;40500;51.084;16.958;2022-10-30T06:00:21;100699.56;;;10.53;84.03
54600;BME280;40500;51.084;16.958;2022-10-30T06:02:48;100699.92;;;10.52;84.21
54600;BME280;40500;51.084;16.958;2022-10-30T06:05:16;100700.27;;;10.52;84.33
54600;BME280;40500;51.084;16.958;2022-10-30T06:07:43;100698.86;;;10.54;84.36
54600;BME280;40500;51.084;16.958;2022-10-30T06:10:11;100700.23;;;10.56;84.41
54600;BME280;40500;51.084;16.958;2022-10-30T06:12:38;100703.35;;;10.58;84.53
54600;BME280;40500;51.084;16.958;2022-10-30T06:15:07;100707.71;;;10.60;84.72
54600;BME280;40500;51.084;16.958;2022-10-30T06:17:35;100708.77;;;10.59;84.59
54600;BME280;40500;51.084;16.958;2022-10-30T06:20:03;100711.62;;;10.55;84.45
54600;BME280;40500;51.084;16.958;2022-10-30T06:22:30;100718.54;;;10.47;84.32
54600;BME280;40500;51.084;16.958;2022-10-30T06:24:58;100715.47;;;10.39;84.30
54600;BME280;40500;51.084;16.958;2022-10-30T06:27:25;100718.98;;;10.38;84.24
54600;BME280;40500;51.084;16.958;2022-10-30T06:29:53;100717.21;;;10.41;84.23
54600;BME280;40500;51.084;16.958;2022-10-30T06:32:21;100721.90;;;10.44;84.43
54600;BME280;40500;51.084;16.958;2022-10-30T06:34:49;100726.61;;;10.46;84.38
54600;BME280;40500;51.084;16.958;2022-10-30T06:37:16;100728.50;;;10.49;84.33
54600;BME280;40500;51.084;16.958;2022-10-30T06:39:44;100733.38;;;10.51;84.50
54600;BME280;40500;51.084;16.958;2022-10-30T06:42:11;100735.94;;;10.57;84.58
54600;BME280;40500;51.084;16.958;2022-10-30T06:44:39;100738.48;;;10.65;84.41
54600;BME280;40500;51.084;16.958;2022-10-30T06:47:06;100732.80;;;10.71;84.58
54600;BME280;40500;51.084;16.958;2022-10-30T06:49:34;100733.95;;;10.79;84.57
54600;BME280;40500;51.084;16.958;2022-10-30T06:52:01;100735.95;;;10.88;84.79
54600;BME280;40500;51.084;16.958;2022-10-30T06:54:29;100731.65;;;10.96;84.96
54600;BME280;40500;51.084;16.958;2022-10-30T06:56:56;100734.52;;;11.05;84.97
54600;BME280;40500;51.084;16.958;2022-10-30T06:59:23;100738.27;;;11.14;85.13
54600;BME280;40500;51.084;16.958;2022-10-30T07:01:51;100739.04;;;11.21;85.22
54600;BME280;40500;51.084;16.958;2022-10-30T07:04:25;100737.17;;;11.29;85.34
54600;BME280;40500;51.084;16.958;2022-10-30T07:06:53;100738.28;;;11.37;85.37
54600;BME280;40500;51.084;16.958;2022-10-30T07:09:20;100738.70;;;11.46;85.50
54600;BME280;40500;51.084;16.958;2022-10-30T07:11:48;100735.59;;;11.56;85.64
54600;BME280;40500;51.084;16.958;2022-10-30T07:14:21;100739.67;;;11.64;85.54
54600;BME280;40500;51.084;16.958;2022-10-30T07:16:48;100741.81;;;11.73;85.66
54600;BME280;40500;51.084;16.958;2022-10-30T07:19:16;100750.29;;;11.81;85.69
54600;BME280;40500;51.084;16.958;2022-10-30T07:21:43;100749.83;;;11.90;85.96
54600;BME280;40500;51.084;16.958;2022-10-30T07:24:11;100750.08;;;11.98;85.90
54600;BME280;40500;51.084;16.958;2022-10-30T07:26:38;100751.52;;;12.05;85.98
54600;BME280;40500;51.084;16.958;2022-10-30T07:29:06;100757.58;;;12.10;86.04
54600;BME280;40500;51.084;16.958;2022-10-30T07:31:33;100758.89;;;12.16;86.13
54600;BME280;40500;51.084;16.958;2022-10-30T07:34:09;100749.42;;;12.35;86.19
54600;BME280;40500;51.084;16.958;2022-10-30T07:36:37;100748.45;;;12.60;86.19
54600;BME280;40500;51.084;16.958;2022-10-30T07:39:04;100747.14;;;12.92;86.05
54600;BME280;40500;51.084;16.958;2022-10-30T07:41:31;100755.21;;;13.18;85.86
54600;BME280;40500;51.084;16.958;2022-10-30T07:43:59;100758.42;;;13.25;85.72
54600;BME280;40500;51.084;16.958;2022-10-30T07:46:27;100753.25;;;13.28;85.59
54600;BME280;40500;51.084;16.958;2022-10-30T07:48:55;100751.41;;;13.33;85.57
54600;BME280;40500;51.084;16.958;2022-10-30T07:51:22;100753.06;;;13.38;85.53
54600;BME280;40500;51.084;16.958;2022-10-30T07:53:51;100751.35;;;13.44;85.50
54600;BME280;40500;51.084;16.958;2022-10-30T07:56:18;100746.32;;;13.49;85.48
54600;BME280;40500;51.084;16.958;2022-10-30T07:58:45;100746.14;;;13.57;85.34
54600;BME280;40500;51.084;16.958;2022-10-30T08:01:13;100742.96;;;13.65;85.14
54600;BME280;40500;51.084;16.958;2022-10-30T08:03:40;100741.36;;;13.73;85.20
54600;BME280;40500;51.084;16.958;2022-10-30T08:06:08;100742.17;;;13.82;85.02
54600;BME280;40500;51.084;16.958;2022-10-30T08:08:40;100745.13;;;13.93;84.89
54600;BME280;40500;51.084;16.958;2022-10-30T08:11:10;100747.35;;;14.02;84.83
54600;BME280;40500;51.084;16.958;2022-10-30T08:13:37;100751.17;;;14.12;84.75
54600;BME280;40500;51.084;16.958;2022-10-30T08:16:06;100749.90;;;14.20;84.63
54600;BME280;40500;51.084;16.958;2022-10-30T08:18:33;100748.51;;;14.27;84.36
54600;BME280;40500;51.084;16.958;2022-10-30T08:21:01;100748.20;;;14.32;84.29
54600;BME280;40500;51.084;16.958;2022-10-30T08:23:28;100746.09;;;14.38;84.13
54600;BME280;40500;51.084;16.958;2022-10-30T08:25:57;100748.17;;;14.46;84.00
54600;BME280;40500;51.084;16.958;2022-10-30T08:28:26;100744.88;;;14.51;83.87
54600;BME280;40500;51.084;16.958;2022-10-30T08:31:00;100739.97;;;14.57;83.69
54600;BME280;40500;51.084;16.958;2022-10-30T08:33:28;100740.02;;;14.62;83.56
54600;BME280;40500;51.084;16.958;2022-10-30T08:35:57;100739.67;;;14.69;83.33
54600;BME280;40500;51.084;16.958;2022-10-30T08:38:25;100736.93;;;14.72;83.33
54600;BME280;40500;51.084;16.958;2022-10-30T08:40:53;100723.44;;;14.76;82.97
54600;BME280;40500;51.084;16.958;2022-10-30T08:43:21;100718.95;;;14.78;82.90
54600;BME280;40500;51.084;16.958;2022-10-30T08:45:49;100716.02;;;14.82;82.87
54600;BME280;40500;51.084;16.958;2022-10-30T08:48:16;100716.19;;;14.89;82.61
54600;BME280;40500;51.084;16.958;2022-10-30T08:50:44;100719.14;;;14.97;82.60
54600;BME280;40500;51.084;16.958;2022-10-30T08:53:13;100720.30;;;15.06;82.40
54600;BME280;40500;51.084;16.958;2022-10-30T08:55:41;100719.86;;;15.14;82.30
54600;BME280;40500;51.084;16.958;2022-10-30T08:58:08;100721.33;;;15.24;82.06
54600;BME280;40500;51.084;16.958;2022-10-30T09:00:36;100720.73;;;15.32;81.88
54600;BME280;40500;51.084;16.958;2022-10-30T09:03:04;100722.81;;;15.39;81.77
54600;BME280;40500;51.084;16.958;2022-10-30T09:05:31;100718.10;;;15.49;81.56
54600;BME280;40500;51.084;16.958;2022-10-30T09:07:59;100716.21;;;15.59;81.44
54600;BME280;40500;51.084;16.958;2022-10-30T09:10:27;100716.52;;;15.71;81.30
54600;BME280;40500;51.084;16.958;2022-10-30T09:12:55;100719.36;;;15.82;81.11
54600;BME280;40500;51.084;16.958;2022-10-30T09:15:23;100719.07;;;15.92;80.85
54600;BME280;40500;51.084;16.958;2022-10-30T09:17:56;100721.09;;;16.00;80.71
54600;BME280;40500;51.084;16.958;2022-10-30T09:20:24;100716.59;;;16.08;80.49
54600;BME280;40500;51.084;16.958;2022-10-30T09:22:52;100713.19;;;16.14;80.37
54600;BME280;40500;51.084;16.958;2022-10-30T09:25:20;100720.53;;;16.22;80.17
54600;BME280;40500;51.084;16.958;2022-10-30T09:27:47;100716.44;;;16.28;79.94
54600;BME280;40500;51.084;16.958;2022-10-30T09:30:15;100720.92;;;16.36;79.72
54600;BME280;40500;51.084;16.958;2022-10-30T09:32:44;100715.46;;;16.45;79.50
54600;BME280;40500;51.084;16.958;2022-10-30T09:35:11;100710.14;;;16.56;79.31
54600;BME280;40500;51.084;16.958;2022-10-30T09:37:39;100707.14;;;16.66;78.94
54600;BME280;40500;51.084;16.958;2022-10-30T09:40:10;100707.09;;;16.77;78.69
54600;BME280;40500;51.084;16.958;2022-10-30T09:42:45;100704.80;;;16.87;78.49
54600;BME280;40500;51.084;16.958;2022-10-30T09:45:44;100706.98;;;16.94;78.32
54600;BME280;40500;51.084;16.958;2022-10-30T09:48:41;100699.52;;;17.00;77.96
54600;BME280;40500;51.084;16.958;2022-10-30T09:51:22;100694.61;;;17.05;77.76
54600;BME280;40500;51.084;16.958;2022-10-30T09:54:01;100690.17;;;17.09;77.54
54600;BME280;40500;51.084;16.958;2022-10-30T09:56:38;100682.98;;;17.17;77.33
54600;BME280;40500;51.084;16.958;2022-10-30T09:59:13;100672.02;;;17.26;77.06
54600;BME280;40500;51.084;16.958;2022-10-30T10:01:48;100672.83;;;17.32;76.74
54600;BME280;40500;51.084;16.958;2022-10-30T10:04:23;100662.23;;;17.40;76.57
54600;BME280;40500;51.084;16.958;2022-10-30T10:06:56;100658.27;;;17.51;76.35
54600;BME280;40500;51.084;16.958;2022-10-30T10:09:28;100658.36;;;17.61;76.14
54600;BME280;40500;51.084;16.958;2022-10-30T10:11:59;100659.34;;;17.72;75.76
54600;BME280;40500;51.084;16.958;2022-10-30T10:14:34;100655.84;;;17.80;75.28
54600;BME280;40500;51.084;16.958;2022-10-30T10:17:04;100656.14;;;17.86;75.00
54600;BME280;40500;51.084;16.958;2022-10-30T10:19:39;100654.72;;;17.95;74.66
54600;BME280;40500;51.084;16.958;2022-10-30T10:22:20;100649.71;;;18.04;74.36
54600;BME280;40500;51.084;16.958;2022-10-30T10:24:48;100647.33;;;18.14;73.93
54600;BME280;40500;51.084;16.958;2022-10-30T10:27:24;100648.27;;;18.25;73.68
54600;BME280;40500;51.084;16.958;2022-10-30T10:30:02;100652.45;;;18.35;73.24
54600;BME280;40500;51.084;16.958;2022-10-30T10:32:56;100651.02;;;18.43;73.01
54600;BME280;40500;51.084;16.958;2022-10-30T10:35:55;100651.54;;;18.47;72.77
54600;BME280;40500;51.084;16.958;2022-10-30T10:38:42;100654.52;;;18.48;72.58
54600;BME280;40500;51.084;16.958;2022-10-30T10:41:17;100651.30;;;18.49;72.22
54600;BME280;40500;51.084;16.958;2022-10-30T10:43:59;100649.29;;;18.50;71.89
54600;BME280;40500;51.084;16.958;2022-10-30T10:46:39;100643.39;;;18.55;71.59
54600;BME280;40500;51.084;16.958;2022-10-30T10:49:22;100644.30;;;18.62;71.46
54600;BME280;40500;51.084;16.958;2022-10-30T10:51:54;100640.52;;;18.71;71.26
54600;BME280;40500;51.084;16.958;2022-10-30T10:54:27;100632.58;;;18.78;71.09
54600;BME280;40500;51.084;16.958;2022-10-30T10:56:57;100630.41;;;18.84;70.94
54600;BME280;40500;51.084;16.958;2022-10-30T10:59:31;100630.67;;;18.89;70.76
54600;BME280;40500;51.084;16.958;2022-10-30T11:02:22;100628.77;;;18.92;70.56
54600;BME280;40500;51.084;16.958;2022-10-30T11:04:59;100627.43;;;18.94;70.63
54600;BME280;40500;51.084;16.958;2022-10-30T11:07:32;100624.30;;;18.97;70.60
54600;BME280;40500;51.084;16.958;2022-10-30T11:10:05;100628.73;;;19.01;70.53
54600;BME280;40500;51.084;16.958;2022-10-30T11:12:37;100627.21;;;19.06;70.38
54600;BME280;40500;51.084;16.958;2022-10-30T11:15:17;100628.54;;;19.16;70.23
54600;BME280;40500;51.084;16.958;2022-10-30T11:17:51;100624.20;;;19.28;70.11
54600;BME280;40500;51.084;16.958;2022-10-30T11:20:26;100623.51;;;19.43;70.11
54600;BME280;40500;51.084;16.958;2022-10-30T11:22:55;100625.09;;;19.57;69.85
54600;BME280;40500;51.084;16.958;2022-10-30T11:25:25;100627.88;;;19.69;69.80
54600;BME280;40500;51.084;16.958;2022-10-30T11:28:01;100624.45;;;19.78;69.62
54600;BME280;40500;51.084;16.958;2022-10-30T11:30:30;100623.90;;;19.85;69.14
54600;BME280;40500;51.084;16.958;2022-10-30T11:32:58;100628.83;;;19.90;68.84
54600;BME280;40500;51.084;16.958;2022-10-30T11:35:46;100621.77;;;19.92;68.71
54600;BME280;40500;51.084;16.958;2022-10-30T11:38:18;100620.15;;;19.96;68.40
54600;BME280;40500;51.084;16.958;2022-10-30T11:40:51;100617.01;;;20.02;68.22
54600;BME280;40500;51.084;16.958;2022-10-30T11:43:21;100613.39;;;20.06;68.22
54600;BME280;40500;51.084;16.958;2022-10-30T11:45:50;100615.91;;;20.13;68.11
54600;BME280;40500;51.084;16.958;2022-10-30T11:48:22;100614.63;;;20.20;67.89
54600;BME280;40500;51.084;16.958;2022-10-30T11:50:57;100612.20;;;20.29;67.78
54600;BME280;40500;51.084;16.958;2022-10-30T11:53:28;100609.01;;;20.36;67.59
54600;BME280;40500;51.084;16.958;2022-10-30T11:55:58;100604.55;;;20.43;67.28
54600;BME280;40500;51.084;16.958;2022-10-30T11:58:29;100603.83;;;20.49;67.23
54600;BME280;40500;51.084;16.958;2022-10-30T12:01:00;100606.89;;;20.52;67.05
54600;BME280;40500;51.084;16.958;2022-10-30T12:03:34;100606.47;;;20.57;66.86
54600;BME280;40500;51.084;16.958;2022-10-30T12:06:12;100605.58;;;20.60;66.87
54600;BME280;40500;51.084;16.958;2022-10-30T12:08:57;100604.31;;;20.67;66.72
54600;BME280;40500;51.084;16.958;2022-10-30T12:11:28;100611.36;;;20.69;66.53
54600;BME280;40500;51.084;16.958;2022-10-30T12:13:56;100606.64;;;20.67;66.37
54600;BME280;40500;51.084;16.958;2022-10-30T12:16:26;100601.35;;;20.66;66.15
54600;BME280;40500;51.084;16.958;2022-10-30T12:18:59;100603.30;;;20.66;65.94
54600;BME280;40500;51.084;16.958;2022-10-30T12:21:29;100603.89;;;20.75;65.86
54600;BME280;40500;51.084;16.958;2022-10-30T12:23:59;100600.92;;;20.84;65.59
54600;BME280;40500;51.084;16.958;2022-10-30T12:26:33;100593.92;;;20.91;65.34
54600;BME280;40500;51.084;16.958;2022-10-30T12:29:05;100591.23;;;21.01;65.31
54600;BME280;40500;51.084;16.958;2022-10-30T12:31:37;100585.73;;;21.10;65.09
54600;BME280;40500;51.084;16.958;2022-10-30T12:37:10;100581.10;;;21.35;64.93
54600;BME280;40500;51.084;16.958;2022-10-30T12:39:50;100579.31;;;21.42;64.59
54600;BME280;40500;51.084;16.958;2022-10-30T12:42:21;100576.17;;;21.50;64.19
54600;BME280;40500;51.084;16.958;2022-10-30T12:44:58;100572.92;;;21.59;64.13
54600;BME280;40500;51.084;16.958;2022-10-30T12:47:34;100568.48;;;21.65;63.90
54600;BME280;40500;51.084;16.958;2022-10-30T12:50:16;100570.49;;;21.67;63.53
54600;BME280;40500;51.084;16.958;2022-10-30T12:52:49;100566.98;;;21.75;63.30
54600;BME280;40500;51.084;16.958;2022-10-30T12:55:21;100572.34;;;21.82;63.10
54600;BME280;40500;51.084;16.958;2022-10-30T12:57:55;100570.41;;;21.90;62.92
54600;BME280;40500;51.084;16.958;2022-10-30T13:00:25;100576.27;;;22.02;62.80
54600;BME280;40500;51.084;16.958;2022-10-30T13:02:59;100576.27;;;22.05;62.50